createdAt,value
2023-10-06T00:00:36.481Z,4.90
2023-10-06T00:03:40.035Z,5.07
2023-10-06T00:06:43.908Z,4.78
2023-10-06T00:09:46.508Z,5.47
2023-10-06T00:12:50.489Z,5.70
2023-10-06T00:15:53.120Z,5.55
2023-10-06T00:19:00.572Z,5.13
2023-10-06T00:22:18.306Z,4.97
2023-10-06T00:25:21.227Z,5.20
2023-10-06T00:28:27.674Z,5.63
2023-10-06T00:31:32.960Z,3.95
2023-10-06T00:34:38.482Z,4.75
2023-10-06T00:37:41.343Z,5.10
2023-10-06T00:40:52.572Z,4.63
2023-10-06T00:43:56.423Z,4.78
2023-10-06T00:47:00.626Z,4.47
2023-10-06T00:50:07.010Z,5.95
2023-10-06T00:53:11.746Z,6.03
2023-10-06T00:56:17.320Z,5.45
2023-10-06T00:59:24.770Z,4.53
2023-10-06T01:02:27.379Z,5.40
2023-10-06T01:05:34.537Z,4.72
2023-10-06T01:08:54.980Z,5.38
2023-10-06T01:12:06.118Z,5.15
2023-10-06T01:15:21.990Z,10.07
2023-10-06T01:18:26.309Z,7.00
2023-10-06T01:21:31.508Z,4.75
2023-10-06T01:24:34.010Z,7.03
2023-10-06T01:27:36.415Z,6.47
2023-10-06T01:30:39.262Z,7.00
2023-10-06T01:33:41.691Z,7.32
2023-10-06T01:39:49.795Z,5.68
2023-10-06T01:42:52.707Z,5.90
2023-10-06T01:45:55.352Z,6.13
2023-10-06T01:48:57.920Z,7.90
2023-10-06T01:52:09.513Z,6.57
2023-10-06T01:55:13.710Z,5.30
2023-10-06T01:58:16.540Z,6.70
2023-10-06T02:01:22.041Z,7.10
2023-10-06T02:04:26.799Z,6.38
2023-10-06T02:07:29.226Z,6.55
2023-10-06T02:10:34.012Z,6.57
2023-10-06T02:13:39.155Z,7.78
2023-10-06T02:16:42.113Z,7.45
2023-10-06T02:22:47.006Z,8.00
2023-10-06T02:25:49.695Z,4.95
2023-10-06T02:28:52.454Z,4.78
2023-10-06T02:32:08.407Z,4.57
2023-10-06T02:35:13.675Z,6.40
2023-10-06T02:38:16.553Z,5.15
2023-10-06T02:41:20.793Z,4.45
2023-10-06T02:44:24.152Z,4.85
2023-10-06T02:47:28.841Z,5.03
2023-10-06T02:50:34.782Z,5.15
2023-10-06T02:53:37.247Z,4.57
2023-10-06T02:56:40.782Z,4.63
2023-10-06T02:59:49.616Z,4.65
2023-10-06T03:03:22.801Z,5.28
2023-10-06T03:06:33.749Z,5.25
2023-10-06T03:09:47.184Z,4.72
2023-10-06T03:12:50.551Z,5.07
2023-10-06T03:15:53.471Z,6.85
2023-10-06T03:18:55.952Z,5.50
2023-10-06T03:22:01.357Z,5.50
2023-10-06T03:25:15.484Z,5.75
2023-10-06T03:28:26.624Z,4.15
2023-10-06T03:31:48.494Z,4.43
2023-10-06T03:34:56.660Z,4.93
2023-10-06T03:38:09.788Z,6.47
2023-10-06T03:41:33.777Z,5.50
2023-10-06T03:44:36.612Z,6.10
2023-10-06T03:47:39.270Z,4.55
2023-10-06T03:50:45.422Z,4.78
2023-10-06T03:53:52.029Z,5.97
2023-10-06T03:56:55.145Z,5.95
2023-10-06T03:59:59.321Z,5.90
2023-10-06T04:03:25.913Z,5.65
2023-10-06T04:06:36.466Z,5.43
2023-10-06T04:09:42.088Z,4.80
2023-10-06T04:12:44.727Z,7.40
2023-10-06T04:15:50.472Z,4.72
2023-10-06T04:18:55.886Z,6.70
2023-10-06T04:22:17.144Z,6.90
2023-10-06T04:25:38.749Z,5.53
2023-10-06T04:28:41.314Z,5.00
2023-10-06T04:31:56.542Z,3.80
2023-10-06T04:35:17.211Z,7.78
2023-10-06T04:38:26.545Z,6.57
2023-10-06T04:41:56.558Z,5.15
2023-10-06T04:45:08.485Z,7.25
2023-10-06T04:48:11.353Z,5.75
2023-10-06T04:54:49.110Z,6.22
2023-10-06T04:57:54.498Z,4.63
2023-10-06T05:01:09.115Z,6.68
2023-10-06T05:04:12.323Z,5.28
2023-10-06T05:07:33.314Z,5.97
2023-10-06T05:10:41.849Z,7.30
2023-10-06T05:13:55.037Z,4.55
2023-10-06T05:17:45.738Z,7.10
2023-10-06T05:21:10.103Z,6.35
2023-10-06T05:24:21.777Z,4.43
2023-10-06T05:27:27.602Z,6.20
2023-10-06T05:30:48.604Z,7.30
2023-10-06T05:33:54.200Z,7.60
2023-10-06T05:37:24.270Z,7.28
2023-10-06T05:40:31.052Z,5.65
2023-10-06T05:43:36.700Z,4.50
2023-10-06T05:47:09.400Z,6.90
2023-10-06T05:50:31.146Z,5.45
2023-10-06T05:53:40.501Z,5.47
2023-10-06T05:56:47.327Z,5.20
2023-10-06T06:00:02.685Z,4.93
2023-10-06T06:03:32.829Z,5.97
2023-10-06T06:06:37.414Z,5.55
2023-10-06T06:09:49.186Z,5.68
2023-10-06T06:12:51.694Z,6.32
2023-10-06T06:15:58.736Z,7.43
2023-10-06T06:19:12.355Z,5.43
2023-10-06T06:22:30.871Z,7.03
2023-10-06T06:25:48.221Z,6.80
2023-10-06T06:29:10.117Z,7.10
2023-10-06T06:32:33.890Z,5.57
2023-10-06T06:35:54.588Z,8.23
2023-10-06T06:39:04.375Z,6.18
2023-10-06T06:42:18.285Z,8.65
2023-10-06T06:45:21.892Z,7.68
2023-10-06T06:48:27.751Z,8.90
2023-10-06T06:51:59.945Z,5.15
2023-10-06T06:55:14.094Z,6.30
2023-10-06T06:58:33.994Z,6.20
2023-10-06T07:02:07.311Z,6.38
2023-10-06T07:05:25.654Z,5.30
2023-10-06T07:12:13.387Z,5.95
2023-10-06T07:15:18.972Z,6.80
2023-10-06T07:18:28.175Z,5.90
2023-10-06T07:21:31.346Z,9.77
2023-10-06T07:24:33.954Z,6.03
2023-10-06T07:28:13.778Z,6.10
2023-10-06T07:31:44.159Z,7.63
2023-10-06T07:34:54.641Z,6.63
2023-10-06T07:37:57.339Z,6.63
2023-10-06T07:41:06.804Z,7.60
2023-10-06T07:44:19.845Z,8.05
2023-10-06T07:47:32.789Z,6.80
2023-10-06T07:50:41.065Z,6.55
2023-10-06T07:53:49.759Z,8.98
2023-10-06T07:57:04.401Z,6.95
2023-10-06T08:00:10.259Z,6.38
2023-10-06T08:03:45.600Z,7.20
2023-10-06T08:06:48.136Z,7.38
2023-10-06T08:10:14.838Z,7.07
2023-10-06T08:13:17.362Z,7.15
2023-10-06T08:16:22.786Z,6.60
2023-10-06T08:19:40.649Z,5.28
2023-10-06T08:22:53.177Z,6.35
2023-10-06T08:26:08.693Z,6.72
2023-10-06T08:29:16.925Z,5.55
2023-10-06T08:32:44.055Z,7.75
2023-10-06T08:36:03.221Z,5.75
2023-10-06T08:39:05.850Z,5.82
2023-10-06T08:42:36.599Z,6.53
2023-10-06T08:45:42.903Z,5.57
2023-10-06T08:48:46.727Z,8.57
2023-10-06T08:52:10.145Z,4.32
2023-10-06T08:55:26.856Z,7.47
2023-10-06T08:58:30.609Z,5.95
2023-10-06T09:01:35.953Z,7.20
2023-10-06T09:04:41.098Z,5.55
2023-10-06T09:07:59.424Z,7.75
2023-10-06T09:11:02.843Z,5.50
2023-10-06T09:14:14.414Z,7.05
2023-10-06T09:17:17.450Z,7.10
2023-10-06T09:20:31.195Z,6.47
2023-10-06T09:24:03.473Z,4.97
2023-10-06T09:27:22.720Z,5.43
2023-10-06T09:30:25.601Z,4.38
2023-10-06T09:33:55.894Z,5.70
2023-10-06T09:37:42.138Z,4.57
2023-10-06T09:40:48.309Z,4.97
2023-10-06T09:43:58.421Z,4.85
2023-10-06T09:47:01.580Z,4.53
2023-10-06T09:50:05.026Z,5.85
2023-10-06T09:53:09.423Z,6.15
2023-10-06T09:56:18.877Z,5.68
2023-10-06T09:59:28.423Z,4.97
2023-10-06T10:02:39.134Z,5.32
2023-10-06T10:06:02.168Z,6.78
2023-10-06T10:09:08.870Z,4.80
2023-10-06T10:13:02.253Z,6.57
2023-10-06T10:16:51.060Z,5.22
2023-10-06T10:19:54.573Z,5.68
2023-10-06T10:23:15.823Z,4.53
2023-10-06T10:26:37.044Z,5.65
2023-10-06T10:29:42.161Z,5.13
2023-10-06T10:32:56.976Z,6.78
2023-10-06T10:36:18.950Z,5.82
2023-10-06T10:39:53.561Z,5.60
2023-10-06T10:43:14.097Z,4.53
2023-10-06T10:46:45.822Z,6.88
2023-10-06T10:49:48.744Z,6.07
2023-10-06T10:53:20.837Z,4.43
2023-10-06T10:57:04.710Z,4.90
2023-10-06T11:00:35.054Z,4.93
2023-10-06T11:03:40.365Z,4.78
2023-10-06T11:06:51.218Z,5.70
2023-10-06T11:10:36.556Z,4.45
2023-10-06T11:13:54.078Z,3.60
2023-10-06T11:17:15.994Z,4.75
2023-10-06T11:20:23.472Z,4.50
2023-10-06T11:23:45.174Z,3.03
2023-10-06T11:27:16.275Z,3.35
2023-10-06T11:30:27.116Z,4.22
2023-10-06T11:33:38.553Z,4.28
2023-10-06T11:36:49.676Z,3.50
2023-10-06T11:40:11.045Z,3.53
2023-10-06T11:43:19.109Z,3.60
2023-10-06T11:46:21.711Z,3.30
2023-10-06T11:49:27.064Z,3.40
2023-10-06T11:52:41.471Z,3.38
2023-10-06T11:55:43.960Z,3.13
2023-10-06T11:58:49.346Z,3.35
2023-10-06T12:02:10.681Z,3.80
2023-10-06T12:05:24.254Z,3.78
2023-10-06T12:08:45.850Z,3.47
2023-10-06T12:11:48.779Z,3.80
2023-10-06T12:15:07.518Z,3.55
2023-10-06T12:18:34.761Z,3.42
2023-10-06T12:21:37.194Z,3.50
2023-10-06T12:24:40.587Z,3.70
2023-10-06T12:27:46.214Z,4.35
2023-10-06T12:30:49.092Z,2.78
2023-10-06T12:33:56.985Z,3.53
2023-10-06T12:37:29.718Z,3.72
2023-10-06T12:40:39.783Z,2.90
2023-10-06T12:43:42.744Z,3.65
2023-10-06T12:46:46.871Z,3.33
2023-10-06T12:49:52.719Z,3.10
2023-10-06T12:57:54.181Z,3.22
2023-10-06T13:01:52.262Z,3.10
2023-10-06T13:05:44.293Z,2.53
2023-10-06T13:08:47.001Z,2.90
2023-10-06T13:11:49.439Z,2.65
2023-10-06T13:15:39.311Z,4.38
2023-10-06T13:19:00.822Z,3.17
2023-10-06T13:22:15.103Z,2.25
2023-10-06T13:25:45.845Z,3.50
2023-10-06T13:29:04.893Z,5.30
2023-10-06T13:32:11.490Z,3.63
2023-10-06T13:35:27.169Z,3.20
2023-10-06T13:38:45.657Z,4.30
2023-10-06T13:41:48.346Z,4.00
2023-10-06T13:44:51.919Z,3.00
2023-10-06T13:48:32.348Z,3.63
2023-10-06T13:51:57.321Z,4.35
2023-10-06T13:55:02.502Z,3.15
2023-10-06T13:58:10.833Z,3.88
2023-10-06T14:01:13.725Z,3.70
2023-10-06T14:04:32.547Z,3.05
2023-10-06T14:07:50.389Z,3.25
2023-10-06T14:11:21.201Z,4.10
2023-10-06T14:14:44.543Z,2.80
2023-10-06T14:22:31.717Z,3.67
2023-10-06T14:25:49.194Z,3.08
2023-10-06T14:28:59.832Z,4.28
2023-10-06T14:32:45.761Z,4.70
2023-10-06T14:39:21.746Z,3.72
2023-10-06T14:42:42.844Z,2.80
2023-10-06T14:46:00.567Z,3.35
2023-10-06T14:49:16.573Z,2.75
2023-10-06T14:53:14.666Z,2.35
2023-10-06T14:56:29.234Z,3.65
2023-10-06T14:59:43.310Z,2.95
2023-10-06T15:02:58.400Z,2.50
2023-10-06T15:06:07.637Z,2.38
2023-10-06T15:09:18.884Z,3.35
2023-10-06T15:12:22.554Z,2.33
2023-10-06T15:15:52.397Z,3.28
2023-10-06T15:19:10.112Z,3.75
2023-10-06T15:22:15.557Z,3.55
2023-10-06T15:25:31.352Z,4.22
2023-10-06T15:28:45.792Z,2.80
2023-10-06T15:31:51.190Z,2.70
2023-10-06T15:34:53.913Z,3.05
2023-10-06T15:38:06.804Z,2.55
2023-10-06T15:41:24.608Z,2.83
2023-10-06T15:44:28.801Z,3.53
2023-10-06T15:47:31.551Z,3.22
2023-10-06T15:50:58.550Z,3.10
2023-10-06T15:54:17.379Z,3.92
2023-10-06T15:57:35.142Z,3.08
2023-10-06T16:00:43.683Z,2.53
2023-10-06T16:04:18.431Z,2.75
2023-10-06T16:07:37.478Z,2.90
2023-10-06T16:11:24.096Z,3.53
2023-10-06T16:18:14.042Z,3.35
2023-10-06T16:21:29.844Z,3.03
2023-10-06T16:24:57.812Z,2.90
2023-10-06T16:28:09.211Z,3.47
2023-10-06T16:31:21.186Z,3.47
2023-10-06T16:34:35.974Z,2.88
2023-10-06T16:37:56.083Z,4.22
2023-10-06T16:41:04.823Z,3.45
2023-10-06T16:44:09.325Z,3.75
2023-10-06T16:47:14.507Z,3.97
2023-10-06T16:50:17.198Z,4.07
2023-10-06T16:53:38.022Z,4.80
2023-10-06T16:56:44.114Z,4.90
2023-10-06T17:00:26.671Z,3.65
2023-10-06T17:03:35.304Z,3.22
2023-10-06T17:06:41.226Z,4.72
2023-10-06T17:09:47.157Z,4.88
2023-10-06T17:12:55.194Z,4.78
2023-10-06T17:16:32.588Z,4.13
2023-10-06T17:19:35.448Z,3.90
2023-10-06T17:22:38.778Z,3.72
2023-10-06T17:25:44.054Z,4.72
2023-10-06T17:29:03.187Z,4.93
2023-10-06T17:32:09.275Z,5.28
2023-10-06T17:35:11.888Z,8.18
2023-10-06T17:38:23.647Z,10.65
2023-10-06T17:41:26.462Z,7.95
2023-10-06T17:48:31.601Z,6.70
2023-10-06T17:51:34.524Z,7.80
2023-10-06T17:54:37.224Z,7.32
2023-10-06T18:04:26.114Z,6.75
2023-10-06T18:10:58.525Z,6.68
2023-10-06T18:14:34.369Z,7.30
2023-10-06T18:17:36.911Z,5.45
2023-10-06T18:24:38.221Z,6.35
2023-10-06T18:28:02.136Z,7.05
2023-10-06T18:31:04.621Z,8.27
2023-10-06T18:34:13.412Z,7.30
2023-10-06T18:37:46.863Z,7.75
2023-10-06T18:40:59.826Z,7.18
2023-10-06T18:44:02.387Z,6.63
2023-10-06T18:47:11.558Z,7.40
2023-10-06T18:50:22.848Z,7.90
2023-10-06T18:53:29.844Z,8.88
2023-10-06T18:56:51.264Z,8.20
2023-10-06T19:00:39.825Z,7.28
2023-10-06T19:03:50.131Z,8.25
2023-10-06T19:06:53.958Z,9.45
2023-10-06T19:09:56.665Z,7.68
2023-10-06T19:13:05.172Z,7.45
2023-10-06T19:16:13.932Z,6.97
2023-10-06T19:19:19.138Z,8.38
2023-10-06T19:22:47.400Z,9.00
2023-10-06T19:25:57.474Z,6.70
2023-10-06T19:29:10.122Z,10.88
2023-10-06T19:32:17.306Z,7.07
2023-10-06T19:44:32.768Z,6.95
2023-10-06T19:47:37.247Z,8.95
2023-10-06T19:50:41.199Z,6.68
2023-10-06T19:53:48.291Z,6.93
2023-10-06T19:56:58.276Z,7.55
2023-10-06T20:00:14.594Z,7.35
2023-10-06T20:03:18.752Z,11.00
2023-10-06T20:06:22.241Z,7.72
2023-10-06T20:12:52.827Z,6.63
2023-10-06T20:19:27.779Z,8.63
2023-10-06T20:22:32.430Z,8.65
2023-10-06T20:25:36.188Z,7.75
2023-10-06T20:28:39.718Z,7.90
2023-10-06T20:32:40.760Z,6.57
2023-10-06T20:35:46.166Z,7.93
2023-10-06T20:38:58.479Z,11.45
2023-10-06T20:42:04.529Z,7.53
2023-10-06T20:45:13.332Z,9.82
2023-10-06T20:48:46.586Z,9.93
2023-10-06T20:51:55.426Z,7.68
2023-10-06T20:55:01.034Z,8.20
2023-10-06T20:58:24.316Z,9.07
2023-10-06T21:02:08.162Z,6.35
2023-10-06T21:05:30.175Z,8.93
2023-10-06T21:08:43.053Z,9.93
2023-10-06T21:12:23.838Z,8.60
2023-10-06T21:15:36.645Z,6.50
2023-10-06T21:18:45.679Z,9.95
2023-10-06T21:21:48.179Z,8.85
2023-10-06T21:25:06.117Z,7.75
2023-10-06T21:28:41.096Z,6.78
2023-10-06T21:31:54.286Z,8.63
2023-10-06T21:35:01.395Z,8.50
2023-10-06T21:38:06.337Z,6.97
2023-10-06T21:41:29.743Z,9.70
2023-10-06T21:44:32.396Z,9.25
2023-10-06T21:47:35.012Z,6.35
2023-10-06T21:50:38.101Z,8.02
2023-10-06T21:53:51.590Z,9.55
2023-10-06T21:57:13.631Z,8.85
2023-10-06T22:00:30.628Z,8.40
2023-10-06T22:03:41.945Z,10.05
2023-10-06T22:07:22.547Z,9.25
2023-10-06T22:10:26.518Z,7.05
2023-10-06T22:13:33.320Z,7.75
2023-10-06T22:16:36.556Z,8.63
2023-10-06T22:19:43.533Z,7.95
2023-10-06T22:22:46.302Z,8.48
2023-10-06T22:26:12.719Z,8.88
2023-10-06T22:29:33.787Z,7.88
2023-10-06T22:32:37.711Z,6.72
2023-10-06T22:35:41.069Z,8.95
2023-10-06T22:38:47.242Z,8.32
2023-10-06T22:42:14.408Z,10.10
2023-10-06T22:45:43.911Z,9.48
2023-10-06T22:49:06.968Z,8.20
2023-10-06T22:55:40.191Z,8.88
2023-10-06T22:58:48.286Z,7.75
2023-10-06T23:03:13.812Z,7.88
2023-10-06T23:06:31.199Z,9.05
2023-10-06T23:09:50.164Z,9.85
2023-10-06T23:12:54.572Z,7.82
2023-10-06T23:16:29.269Z,7.38
2023-10-06T23:19:43.262Z,8.05
2023-10-06T23:23:15.825Z,6.65
2023-10-06T23:26:22.728Z,7.45
2023-10-06T23:29:41.255Z,7.30
2023-10-06T23:38:25.655Z,8.20
2023-10-06T23:42:24.341Z,8.15
2023-10-06T23:45:55.436Z,8.20
2023-10-06T23:49:17.575Z,7.40
2023-10-06T23:52:26.643Z,10.30
2023-10-06T23:58:59.281Z,7.80
